<?xml version='1.0' encoding='UTF-8'?><gpx version="1.1" creator="JPX - https://github.com/jenetics/jpx" xmlns="http://www.topografix.com/GPX/1/1"><trk><trkseg><trkpt lat="42.4673029" lon="12.3907753"><ele>63.99999999999999</ele><time>2026-04-25T07:23:58.759Z</time></trkpt><trkpt lat="42.4673721" lon="12.3906903"><ele>64.0</ele><time>2026-04-25T07:24:00.759Z</time></trkpt><trkpt lat="42.467423" lon="12.3907577"><ele>64.0</ele><time>2026-04-25T07:24:04.759Z</time></trkpt><trkpt lat="42.4673724" lon="12.3908542"><ele>64.0</ele><time>2026-04-25T07:24:07.759Z</time></trkpt><trkpt lat="42.4673376" lon="12.3909289"><ele>63.99999999999999</ele><time>2026-04-25T07:24:09.76Z</time></trkpt><trkpt lat="42.4673008" lon="12.3910212"><ele>64.0</ele><time>2026-04-25T07:24:11.76Z</time></trkpt><trkpt lat="42.4672664" lon="12.3911074"><ele>63.99999999999999</ele><time>2026-04-25T07:24:13.76Z</time></trkpt><trkpt lat="42.4672279" lon="12.3911869"><ele>64.0</ele><time>2026-04-25T07:24:15.76Z</time></trkpt><trkpt lat="42.4671901" lon="12.3912707"><ele>64.0</ele><time>2026-04-25T07:24:17.759Z</time></trkpt><trkpt lat="42.4671393" lon="12.3913679"><ele>64.0</ele><time>2026-04-25T07:24:19.759Z</time></trkpt><trkpt lat="42.4670806" lon="12.3914742"><ele>63.99999999999999</ele><time>2026-04-25T07:24:21.759Z</time></trkpt><trkpt lat="42.4670204" lon="12.3915903"><ele>64.0</ele><time>2026-04-25T07:24:23.76Z</time></trkpt><trkpt lat="42.4669569" lon="12.3917156"><ele>63.800000000000004</ele><time>2026-04-25T07:24:25.76Z</time></trkpt><trkpt lat="42.4668903" lon="12.3918521"><ele>63.60000000000001</ele><time>2026-04-25T07:24:27.76Z</time></trkpt><trkpt lat="42.466815" lon="12.3919857"><ele>63.4</ele><time>2026-04-25T07:24:29.76Z</time></trkpt><trkpt lat="42.4667456" lon="12.3921243"><ele>63.2</ele><time>2026-04-25T07:24:31.758Z</time></trkpt><trkpt lat="42.4667078" lon="12.3921964"><ele>63.0</ele><time>2026-04-25T07:24:32.758Z</time></trkpt><trkpt lat="42.4666359" lon="12.3923365"><ele>63.0</ele><time>2026-04-25T07:24:34.76Z</time></trkpt><trkpt lat="42.4665668" lon="12.3924819"><ele>63.0</ele><time>2026-04-25T07:24:36.76Z</time></trkpt><trkpt lat="42.4665337" lon="12.3925549"><ele>63.0</ele><time>2026-04-25T07:24:37.759Z</time></trkpt><trkpt lat="42.4665029" lon="12.39263"><ele>63.0</ele><time>2026-04-25T07:24:38.76Z</time></trkpt><trkpt lat="42.4664475" lon="12.3927666"><ele>63.0</ele><time>2026-04-25T07:24:40.76Z</time></trkpt><trkpt lat="42.4664036" lon="12.3928879"><ele>63.0</ele><time>2026-04-25T07:24:42.76Z</time></trkpt><trkpt lat="42.4663606" lon="12.3929732"><ele>63.0</ele><time>2026-04-25T07:24:44.76Z</time></trkpt><trkpt lat="42.4663247" lon="12.3930522"><ele>63.0</ele><time>2026-04-25T07:24:47.76Z</time></trkpt><trkpt lat="42.466261" lon="12.3931205"><ele>63.0</ele><time>2026-04-25T07:24:49.76Z</time></trkpt><trkpt lat="42.4662005" lon="12.3932462"><ele>63.0</ele><time>2026-04-25T07:24:51.759Z</time></trkpt><trkpt lat="42.4661304" lon="12.3933858"><ele>62.833333333333336</ele><time>2026-04-25T07:24:53.761Z</time></trkpt><trkpt lat="42.4660581" lon="12.3935287"><ele>62.66666666666667</ele><time>2026-04-25T07:24:55.76Z</time></trkpt><trkpt lat="42.4660234" lon="12.3936091"><ele>62.5</ele><time>2026-04-25T07:24:56.759Z</time></trkpt><trkpt lat="42.4659843" lon="12.3936868"><ele>62.333333333333336</ele><time>2026-04-25T07:24:57.76Z</time></trkpt><trkpt lat="42.4659421" lon="12.3937609"><ele>62.16666666666667</ele><time>2026-04-25T07:24:58.758Z</time></trkpt><trkpt lat="42.4658993" lon="12.3938402"><ele>62.0</ele><time>2026-04-25T07:24:59.759Z</time></trkpt><trkpt lat="42.4658596" lon="12.3939172"><ele>62.28571428571429</ele><time>2026-04-25T07:25:00.76Z</time></trkpt><trkpt lat="42.4658247" lon="12.3939944"><ele>62.57142857142858</ele><time>2026-04-25T07:25:01.761Z</time></trkpt><trkpt lat="42.4657846" lon="12.3940696"><ele>62.85714285714286</ele><time>2026-04-25T07:25:02.759Z</time></trkpt><trkpt lat="42.465736" lon="12.3941333"><ele>63.14285714285714</ele><time>2026-04-25T07:25:03.758Z</time></trkpt><trkpt lat="42.4656827" lon="12.3941836"><ele>63.42857142857142</ele><time>2026-04-25T07:25:04.76Z</time></trkpt><trkpt lat="42.4655987" lon="12.3942619"><ele>63.71428571428571</ele><time>2026-04-25T07:25:06.759Z</time></trkpt><trkpt lat="42.4655513" lon="12.3943282"><ele>64.0</ele><time>2026-04-25T07:25:10.917Z</time></trkpt><trkpt lat="42.465575" lon="12.3944735"><ele>63.99999999999999</ele><time>2026-04-25T07:25:20.918Z</time></trkpt><trkpt lat="42.4656137" lon="12.3945552"><ele>64.0</ele><time>2026-04-25T07:25:21.918Z</time></trkpt><trkpt lat="42.4656585" lon="12.3946361"><ele>64.0</ele><time>2026-04-25T07:25:22.919Z</time></trkpt><trkpt lat="42.4657034" lon="12.3947196"><ele>64.0</ele><time>2026-04-25T07:25:23.918Z</time></trkpt><trkpt lat="42.4657476" lon="12.3948017"><ele>63.99999999999999</ele><time>2026-04-25T07:25:24.918Z</time></trkpt><trkpt lat="42.4657933" lon="12.3948837"><ele>64.0</ele><time>2026-04-25T07:25:25.919Z</time></trkpt><trkpt lat="42.46584" lon="12.3949687"><ele>64.16666666666666</ele><time>2026-04-25T07:25:26.918Z</time></trkpt><trkpt lat="42.4658875" lon="12.3950558"><ele>64.33333333333333</ele><time>2026-04-25T07:25:27.919Z</time></trkpt><trkpt lat="42.4659388" lon="12.3951494"><ele>64.5</ele><time>2026-04-25T07:25:28.919Z</time></trkpt><trkpt lat="42.4659895" lon="12.3952442"><ele>64.66666666666667</ele><time>2026-04-25T07:25:29.919Z</time></trkpt><trkpt lat="42.4660428" lon="12.3953394"><ele>64.83333333333334</ele><time>2026-04-25T07:25:30.919Z</time></trkpt><trkpt lat="42.4660964" lon="12.3954345"><ele>65.0</ele><time>2026-04-25T07:25:31.919Z</time></trkpt><trkpt lat="42.4661522" lon="12.3955342"><ele>65.0</ele><time>2026-04-25T07:25:32.917Z</time></trkpt><trkpt lat="42.4662076" lon="12.3956378"><ele>65.0</ele><time>2026-04-25T07:25:33.917Z</time></trkpt><trkpt lat="42.4662624" lon="12.3957365"><ele>65.0</ele><time>2026-04-25T07:25:34.919Z</time></trkpt><trkpt lat="42.4663222" lon="12.3958404"><ele>65.0</ele><time>2026-04-25T07:25:35.918Z</time></trkpt><trkpt lat="42.4663832" lon="12.3959463"><ele>65.0</ele><time>2026-04-25T07:25:36.918Z</time></trkpt><trkpt lat="42.4664432" lon="12.3960461"><ele>65.0</ele><time>2026-04-25T07:25:37.918Z</time></trkpt><trkpt lat="42.4665038" lon="12.3961494"><ele>65.0</ele><time>2026-04-25T07:25:38.918Z</time></trkpt><trkpt lat="42.4665629" lon="12.3962495"><ele>65.0</ele><time>2026-04-25T07:25:39.919Z</time></trkpt><trkpt lat="42.4666236" lon="12.3963547"><ele>65.0</ele><time>2026-04-25T07:25:40.92Z</time></trkpt><trkpt lat="42.4666841" lon="12.3964671"><ele>65.0</ele><time>2026-04-25T07:25:41.918Z</time></trkpt><trkpt lat="42.4667473" lon="12.3965852"><ele>65.0</ele><time>2026-04-25T07:25:42.919Z</time></trkpt><trkpt lat="42.4668131" lon="12.3967065"><ele>65.0</ele><time>2026-04-25T07:25:43.918Z</time></trkpt><trkpt lat="42.466879" lon="12.3968275"><ele>65.0</ele><time>2026-04-25T07:25:44.919Z</time></trkpt><trkpt lat="42.4669476" lon="12.3969451"><ele>65.0</ele><time>2026-04-25T07:25:45.918Z</time></trkpt><trkpt lat="42.4670179" lon="12.3970642"><ele>65.0</ele><time>2026-04-25T07:25:46.917Z</time></trkpt><trkpt lat="42.4670887" lon="12.3971825"><ele>65.75</ele><time>2026-04-25T07:25:47.919Z</time></trkpt><trkpt lat="42.4671607" lon="12.3973152"><ele>66.5</ele><time>2026-04-25T07:25:48.918Z</time></trkpt><trkpt lat="42.4672356" lon="12.3974512"><ele>67.25</ele><time>2026-04-25T07:25:49.917Z</time></trkpt><trkpt lat="42.4673173" lon="12.3975962"><ele>68.0</ele><time>2026-04-25T07:25:50.917Z</time></trkpt><trkpt lat="42.4674014" lon="12.3977424"><ele>68.0</ele><time>2026-04-25T07:25:51.918Z</time></trkpt><trkpt lat="42.4674861" lon="12.3978966"><ele>68.0</ele><time>2026-04-25T07:25:52.918Z</time></trkpt><trkpt lat="42.4675722" lon="12.3980517"><ele>68.0</ele><time>2026-04-25T07:25:53.918Z</time></trkpt><trkpt lat="42.4676549" lon="12.3982114"><ele>68.0</ele><time>2026-04-25T07:25:54.918Z</time></trkpt><trkpt lat="42.4677441" lon="12.3983734"><ele>68.25</ele><time>2026-04-25T07:25:55.918Z</time></trkpt><trkpt lat="42.4678333" lon="12.3985288"><ele>68.5</ele><time>2026-04-25T07:25:56.918Z</time></trkpt><trkpt lat="42.4679194" lon="12.3986824"><ele>68.75</ele><time>2026-04-25T07:25:57.919Z</time></trkpt><trkpt lat="42.4680052" lon="12.3988372"><ele>69.0</ele><time>2026-04-25T07:25:58.918Z</time></trkpt><trkpt lat="42.4680884" lon="12.3989851"><ele>70.25</ele><time>2026-04-25T07:25:59.918Z</time></trkpt><trkpt lat="42.4681713" lon="12.3991175"><ele>71.5</ele><time>2026-04-25T07:26:00.918Z</time></trkpt><trkpt lat="42.4682636" lon="12.3992342"><ele>72.75</ele><time>2026-04-25T07:26:01.918Z</time></trkpt><trkpt lat="42.4683658" lon="12.3993249"><ele>74.0</ele><time>2026-04-25T07:26:02.917Z</time></trkpt><trkpt lat="42.4684754" lon="12.3993915"><ele>74.0</ele><time>2026-04-25T07:26:03.919Z</time></trkpt><trkpt lat="42.4685965" lon="12.3994307"><ele>74.0</ele><time>2026-04-25T07:26:04.917Z</time></trkpt><trkpt lat="42.4687212" lon="12.3994511"><ele>74.0</ele><time>2026-04-25T07:26:05.919Z</time></trkpt><trkpt lat="42.4688495" lon="12.3994395"><ele>74.0</ele><time>2026-04-25T07:26:06.919Z</time></trkpt><trkpt lat="42.4689826" lon="12.3994061"><ele>75.25</ele><time>2026-04-25T07:26:07.918Z</time></trkpt><trkpt lat="42.4691182" lon="12.3993716"><ele>76.5</ele><time>2026-04-25T07:26:08.918Z</time></trkpt><trkpt lat="42.4692554" lon="12.3993367"><ele>77.75</ele><time>2026-04-25T07:26:09.917Z</time></trkpt><trkpt lat="42.4694042" lon="12.3992852"><ele>79.0</ele><time>2026-04-25T07:26:10.917Z</time></trkpt><trkpt lat="42.4695495" lon="12.3992376"><ele>81.0</ele><time>2026-04-25T07:26:11.92Z</time></trkpt><trkpt lat="42.4696905" lon="12.3991946"><ele>83.0</ele><time>2026-04-25T07:26:12.918Z</time></trkpt><trkpt lat="42.4698295" lon="12.3991595"><ele>85.0</ele><time>2026-04-25T07:26:13.918Z</time></trkpt><trkpt lat="42.469963" lon="12.3991209"><ele>87.0</ele><time>2026-04-25T07:26:14.917Z</time></trkpt><trkpt lat="42.47007" lon="12.3990814"><ele>87.0</ele><time>2026-04-25T07:26:15.918Z</time></trkpt><trkpt lat="42.4701767" lon="12.3990433"><ele>87.0</ele><time>2026-04-25T07:26:16.917Z</time></trkpt><trkpt lat="42.4702734" lon="12.39901"><ele>87.0</ele><time>2026-04-25T07:26:17.919Z</time></trkpt><trkpt lat="42.4703638" lon="12.3989713"><ele>87.0</ele><time>2026-04-25T07:26:18.92Z</time></trkpt><trkpt lat="42.4704633" lon="12.3989389"><ele>87.0</ele><time>2026-04-25T07:26:19.918Z</time></trkpt><trkpt lat="42.4705756" lon="12.3989142"><ele>86.8</ele><time>2026-04-25T07:26:20.917Z</time></trkpt><trkpt lat="42.4706886" lon="12.3988787"><ele>86.6</ele><time>2026-04-25T07:26:21.917Z</time></trkpt><trkpt lat="42.4707905" lon="12.3988423"><ele>86.39999999999999</ele><time>2026-04-25T07:26:22.917Z</time></trkpt><trkpt lat="42.4708803" lon="12.398814"><ele>86.19999999999999</ele><time>2026-04-25T07:26:23.919Z</time></trkpt><trkpt lat="42.470964" lon="12.3987903"><ele>86.0</ele><time>2026-04-25T07:26:24.919Z</time></trkpt><trkpt lat="42.4710581" lon="12.398764"><ele>86.0</ele><time>2026-04-25T07:26:25.917Z</time></trkpt><trkpt lat="42.4711544" lon="12.3987496"><ele>86.0</ele><time>2026-04-25T07:26:26.918Z</time></trkpt><trkpt lat="42.4712702" lon="12.3987387"><ele>86.0</ele><time>2026-04-25T07:26:27.919Z</time></trkpt><trkpt lat="42.4713919" lon="12.3987208"><ele>86.0</ele><time>2026-04-25T07:26:28.917Z</time></trkpt><trkpt lat="42.4715144" lon="12.3987051"><ele>87.0</ele><time>2026-04-25T07:26:29.918Z</time></trkpt><trkpt lat="42.4716269" lon="12.3987041"><ele>88.0</ele><time>2026-04-25T07:26:30.919Z</time></trkpt><trkpt lat="42.4717342" lon="12.3987124"><ele>89.0</ele><time>2026-04-25T07:26:31.917Z</time></trkpt><trkpt lat="42.4718344" lon="12.3987081"><ele>90.0</ele><time>2026-04-25T07:26:32.918Z</time></trkpt><trkpt lat="42.471935" lon="12.3987068"><ele>91.0</ele><time>2026-04-25T07:26:33.917Z</time></trkpt><trkpt lat="42.4720342" lon="12.3987012"><ele>92.0</ele><time>2026-04-25T07:26:34.917Z</time></trkpt><trkpt lat="42.4721306" lon="12.3986939"><ele>93.0</ele><time>2026-04-25T07:26:35.918Z</time></trkpt><trkpt lat="42.4722216" lon="12.3986778"><ele>94.0</ele><time>2026-04-25T07:26:36.919Z</time></trkpt><trkpt lat="42.4723127" lon="12.3986562"><ele>95.0</ele><time>2026-04-25T07:26:37.919Z</time></trkpt><trkpt lat="42.4724008" lon="12.3986254"><ele>96.0</ele><time>2026-04-25T07:26:38.919Z</time></trkpt><trkpt lat="42.4724901" lon="12.3985868"><ele>96.0</ele><time>2026-04-25T07:26:39.917Z</time></trkpt><trkpt lat="42.472574" lon="12.3985371"><ele>96.0</ele><time>2026-04-25T07:26:40.918Z</time></trkpt><trkpt lat="42.4726557" lon="12.3984722"><ele>96.0</ele><time>2026-04-25T07:26:41.917Z</time></trkpt><trkpt lat="42.4727351" lon="12.3983979"><ele>96.0</ele><time>2026-04-25T07:26:42.92Z</time></trkpt><trkpt lat="42.4728133" lon="12.3983235"><ele>96.0</ele><time>2026-04-25T07:26:43.918Z</time></trkpt><trkpt lat="42.4728886" lon="12.3982434"><ele>96.33333333333333</ele><time>2026-04-25T07:26:44.918Z</time></trkpt><trkpt lat="42.4729623" lon="12.3981589"><ele>96.66666666666666</ele><time>2026-04-25T07:26:45.919Z</time></trkpt><trkpt lat="42.4730346" lon="12.398074"><ele>97.0</ele><time>2026-04-25T07:26:46.917Z</time></trkpt><trkpt lat="42.473099" lon="12.397992"><ele>97.33333333333333</ele><time>2026-04-25T07:26:47.918Z</time></trkpt><trkpt lat="42.4731618" lon="12.3979181"><ele>97.66666666666666</ele><time>2026-04-25T07:26:48.918Z</time></trkpt><trkpt lat="42.4732165" lon="12.3978619"><ele>98.0</ele><time>2026-04-25T07:26:49.917Z</time></trkpt><trkpt lat="42.473278" lon="12.3978169"><ele>98.0</ele><time>2026-04-25T07:26:50.919Z</time></trkpt><trkpt lat="42.4733473" lon="12.3977982"><ele>98.0</ele><time>2026-04-25T07:26:51.918Z</time></trkpt><trkpt lat="42.47341" lon="12.3978081"><ele>98.0</ele><time>2026-04-25T07:26:52.918Z</time></trkpt><trkpt lat="42.4734629" lon="12.3978592"><ele>98.0</ele><time>2026-04-25T07:26:53.918Z</time></trkpt><trkpt lat="42.4734984" lon="12.3979426"><ele>98.0</ele><time>2026-04-25T07:26:54.918Z</time></trkpt><trkpt lat="42.4735078" lon="12.3980382"><ele>98.0</ele><time>2026-04-25T07:26:55.918Z</time></trkpt><trkpt lat="42.4734882" lon="12.3981328"><ele>98.0</ele><time>2026-04-25T07:26:56.918Z</time></trkpt><trkpt lat="42.4734452" lon="12.39822"><ele>99.33333333333333</ele><time>2026-04-25T07:26:57.917Z</time></trkpt><trkpt lat="42.4733852" lon="12.3982933"><ele>100.66666666666666</ele><time>2026-04-25T07:26:58.918Z</time></trkpt><trkpt lat="42.4733284" lon="12.3983679"><ele>102.0</ele><time>2026-04-25T07:26:59.919Z</time></trkpt><trkpt lat="42.4732734" lon="12.3984463"><ele>103.33333333333334</ele><time>2026-04-25T07:27:00.918Z</time></trkpt><trkpt lat="42.4732217" lon="12.3985285"><ele>104.66666666666667</ele><time>2026-04-25T07:27:01.918Z</time></trkpt><trkpt lat="42.4731757" lon="12.398616"><ele>106.0</ele><time>2026-04-25T07:27:02.918Z</time></trkpt><trkpt lat="42.4731405" lon="12.3986978"><ele>107.4</ele><time>2026-04-25T07:27:03.919Z</time></trkpt><trkpt lat="42.4730955" lon="12.398847"><ele>108.8</ele><time>2026-04-25T07:27:05.919Z</time></trkpt><trkpt lat="42.4730614" lon="12.3990056"><ele>110.20000000000002</ele><time>2026-04-25T07:27:07.917Z</time></trkpt><trkpt lat="42.4730578" lon="12.3990922"><ele>111.60000000000001</ele><time>2026-04-25T07:27:08.918Z</time></trkpt><trkpt lat="42.4730543" lon="12.3992679"><ele>113.0</ele><time>2026-04-25T07:27:10.918Z</time></trkpt><trkpt lat="42.4730547" lon="12.3993566"><ele>112.99999999999999</ele><time>2026-04-25T07:27:11.92Z</time></trkpt><trkpt lat="42.4730518" lon="12.3994472"><ele>113.0</ele><time>2026-04-25T07:27:12.918Z</time></trkpt><trkpt lat="42.4730488" lon="12.3995343"><ele>113.0</ele><time>2026-04-25T07:27:13.917Z</time></trkpt><trkpt lat="42.4730443" lon="12.3996312"><ele>113.0</ele><time>2026-04-25T07:27:14.918Z</time></trkpt><trkpt lat="42.4730304" lon="12.3997409"><ele>112.99999999999999</ele><time>2026-04-25T07:27:15.919Z</time></trkpt><trkpt lat="42.4730025" lon="12.3998621"><ele>113.0</ele><time>2026-04-25T07:27:16.918Z</time></trkpt><trkpt lat="42.472953" lon="12.3999864"><ele>112.25</ele><time>2026-04-25T07:27:17.918Z</time></trkpt><trkpt lat="42.4728737" lon="12.4001123"><ele>111.5</ele><time>2026-04-25T07:27:18.918Z</time></trkpt><trkpt lat="42.4727775" lon="12.4002294"><ele>110.75</ele><time>2026-04-25T07:27:19.917Z</time></trkpt><trkpt lat="42.4726862" lon="12.4003274"><ele>110.0</ele><time>2026-04-25T07:27:20.919Z</time></trkpt><trkpt lat="42.4726005" lon="12.4004227"><ele>111.8</ele><time>2026-04-25T07:27:21.918Z</time></trkpt><trkpt lat="42.4725199" lon="12.4005257"><ele>113.6</ele><time>2026-04-25T07:27:22.917Z</time></trkpt><trkpt lat="42.4724467" lon="12.4006276"><ele>115.4</ele><time>2026-04-25T07:27:23.919Z</time></trkpt><trkpt lat="42.4723872" lon="12.4007438"><ele>117.2</ele><time>2026-04-25T07:27:24.919Z</time></trkpt><trkpt lat="42.4723397" lon="12.4008765"><ele>119.0</ele><time>2026-04-25T07:27:25.918Z</time></trkpt><trkpt lat="42.4722966" lon="12.4010155"><ele>119.0</ele><time>2026-04-25T07:27:26.917Z</time></trkpt><trkpt lat="42.4722576" lon="12.4011488"><ele>119.0</ele><time>2026-04-25T07:27:27.918Z</time></trkpt><trkpt lat="42.4722135" lon="12.4012835"><ele>119.0</ele><time>2026-04-25T07:27:28.919Z</time></trkpt><trkpt lat="42.4721621" lon="12.4013994"><ele>119.0</ele><time>2026-04-25T07:27:29.918Z</time></trkpt><trkpt lat="42.4720907" lon="12.4015053"><ele>119.0</ele><time>2026-04-25T07:27:30.918Z</time></trkpt><trkpt lat="42.4720071" lon="12.4016043"><ele>118.80000000000001</ele><time>2026-04-25T07:27:31.917Z</time></trkpt><trkpt lat="42.4719228" lon="12.4017014"><ele>118.60000000000001</ele><time>2026-04-25T07:27:32.919Z</time></trkpt><trkpt lat="42.47185" lon="12.4018034"><ele>118.4</ele><time>2026-04-25T07:27:33.917Z</time></trkpt><trkpt lat="42.471791" lon="12.4019208"><ele>118.2</ele><time>2026-04-25T07:27:34.917Z</time></trkpt><trkpt lat="42.4717567" lon="12.4020465"><ele>118.0</ele><time>2026-04-25T07:27:35.918Z</time></trkpt><trkpt lat="42.4717467" lon="12.4021824"><ele>119.0</ele><time>2026-04-25T07:27:36.917Z</time></trkpt><trkpt lat="42.4717549" lon="12.4023117"><ele>120.00000000000001</ele><time>2026-04-25T07:27:37.918Z</time></trkpt><trkpt lat="42.4717823" lon="12.4024266"><ele>121.00000000000001</ele><time>2026-04-25T07:27:38.919Z</time></trkpt><trkpt lat="42.4718237" lon="12.4025312"><ele>122.0</ele><time>2026-04-25T07:27:39.917Z</time></trkpt><trkpt lat="42.4718711" lon="12.4026085"><ele>123.0</ele><time>2026-04-25T07:27:40.918Z</time></trkpt><trkpt lat="42.4719747" lon="12.4027109"><ele>123.0</ele><time>2026-04-25T07:27:42.918Z</time></trkpt><trkpt lat="42.4720409" lon="12.4027405"><ele>123.0</ele><time>2026-04-25T07:27:43.918Z</time></trkpt><trkpt lat="42.4721121" lon="12.4027625"><ele>123.0</ele><time>2026-04-25T07:27:44.919Z</time></trkpt><trkpt lat="42.4721885" lon="12.4027749"><ele>123.0</ele><time>2026-04-25T07:27:45.919Z</time></trkpt><trkpt lat="42.4722689" lon="12.4027652"><ele>123.0</ele><time>2026-04-25T07:27:46.918Z</time></trkpt><trkpt lat="42.4723486" lon="12.4027352"><ele>123.0</ele><time>2026-04-25T07:27:47.918Z</time></trkpt><trkpt lat="42.4724235" lon="12.4026816"><ele>123.80000000000001</ele><time>2026-04-25T07:27:48.918Z</time></trkpt><trkpt lat="42.4724961" lon="12.4026181"><ele>124.60000000000001</ele><time>2026-04-25T07:27:49.918Z</time></trkpt><trkpt lat="42.472568" lon="12.4025467"><ele>125.39999999999999</ele><time>2026-04-25T07:27:50.919Z</time></trkpt><trkpt lat="42.4726429" lon="12.4024787"><ele>126.19999999999999</ele><time>2026-04-25T07:27:51.917Z</time></trkpt><trkpt lat="42.4727296" lon="12.4024224"><ele>127.0</ele><time>2026-04-25T07:27:52.918Z</time></trkpt><trkpt lat="42.4728193" lon="12.402378"><ele>127.0</ele><time>2026-04-25T07:27:53.917Z</time></trkpt><trkpt lat="42.4729112" lon="12.4023564"><ele>126.99999999999999</ele><time>2026-04-25T07:27:54.918Z</time></trkpt><trkpt lat="42.4730022" lon="12.4023533"><ele>126.99999999999999</ele><time>2026-04-25T07:27:55.918Z</time></trkpt><trkpt lat="42.4730949" lon="12.4023591"><ele>127.0</ele><time>2026-04-25T07:27:56.918Z</time></trkpt><trkpt lat="42.4731906" lon="12.4023678"><ele>127.0</ele><time>2026-04-25T07:27:57.918Z</time></trkpt><trkpt lat="42.4732876" lon="12.4023764"><ele>127.8</ele><time>2026-04-25T07:27:58.917Z</time></trkpt><trkpt lat="42.4733887" lon="12.4023899"><ele>128.6</ele><time>2026-04-25T07:27:59.917Z</time></trkpt><trkpt lat="42.4734932" lon="12.4023978"><ele>129.39999999999998</ele><time>2026-04-25T07:28:00.918Z</time></trkpt><trkpt lat="42.4735987" lon="12.4023951"><ele>130.2</ele><time>2026-04-25T07:28:01.917Z</time></trkpt><trkpt lat="42.473699" lon="12.4023807"><ele>131.0</ele><time>2026-04-25T07:28:02.919Z</time></trkpt><trkpt lat="42.4737916" lon="12.4023446"><ele>132.0</ele><time>2026-04-25T07:28:03.917Z</time></trkpt><trkpt lat="42.4738793" lon="12.4022927"><ele>133.0</ele><time>2026-04-25T07:28:04.918Z</time></trkpt><trkpt lat="42.4739629" lon="12.4022334"><ele>134.0</ele><time>2026-04-25T07:28:05.917Z</time></trkpt><trkpt lat="42.4740449" lon="12.4021658"><ele>135.0</ele><time>2026-04-25T07:28:06.916Z</time></trkpt><trkpt lat="42.474123" lon="12.4020872"><ele>136.0</ele><time>2026-04-25T07:28:07.917Z</time></trkpt><trkpt lat="42.4742022" lon="12.4020085"><ele>136.0</ele><time>2026-04-25T07:28:08.918Z</time></trkpt><trkpt lat="42.4742809" lon="12.4019322"><ele>136.0</ele><time>2026-04-25T07:28:09.917Z</time></trkpt><trkpt lat="42.4743682" lon="12.4018595"><ele>136.0</ele><time>2026-04-25T07:28:10.917Z</time></trkpt><trkpt lat="42.4744562" lon="12.4017699"><ele>136.0</ele><time>2026-04-25T07:28:11.917Z</time></trkpt><trkpt lat="42.4745457" lon="12.4016821"><ele>136.0</ele><time>2026-04-25T07:28:12.919Z</time></trkpt><trkpt lat="42.4746372" lon="12.4015953"><ele>137.2</ele><time>2026-04-25T07:28:13.919Z</time></trkpt><trkpt lat="42.4747283" lon="12.4015226"><ele>138.39999999999998</ele><time>2026-04-25T07:28:14.918Z</time></trkpt><trkpt lat="42.4748176" lon="12.4014353"><ele>139.6</ele><time>2026-04-25T07:28:15.918Z</time></trkpt><trkpt lat="42.4749052" lon="12.4013461"><ele>140.79999999999998</ele><time>2026-04-25T07:28:16.918Z</time></trkpt><trkpt lat="42.4749934" lon="12.4012606"><ele>142.0</ele><time>2026-04-25T07:28:17.916Z</time></trkpt><trkpt lat="42.4750845" lon="12.4011769"><ele>142.0</ele><time>2026-04-25T07:28:18.918Z</time></trkpt><trkpt lat="42.4751957" lon="12.4011022"><ele>142.0</ele><time>2026-04-25T07:28:19.918Z</time></trkpt><trkpt lat="42.4753046" lon="12.4010547"><ele>142.0</ele><time>2026-04-25T07:28:20.918Z</time></trkpt><trkpt lat="42.4754339" lon="12.4010117"><ele>142.0</ele><time>2026-04-25T07:28:21.918Z</time></trkpt><trkpt lat="42.4755606" lon="12.4009802"><ele>143.5</ele><time>2026-04-25T07:28:22.918Z</time></trkpt><trkpt lat="42.4756848" lon="12.4009473"><ele>145.0</ele><time>2026-04-25T07:28:23.916Z</time></trkpt><trkpt lat="42.475799" lon="12.4009117"><ele>146.5</ele><time>2026-04-25T07:28:24.919Z</time></trkpt><trkpt lat="42.4759062" lon="12.4008739"><ele>148.0</ele><time>2026-04-25T07:28:25.919Z</time></trkpt><trkpt lat="42.4760062" lon="12.4008323"><ele>148.0</ele><time>2026-04-25T07:28:26.918Z</time></trkpt><trkpt lat="42.4761048" lon="12.4007716"><ele>148.0</ele><time>2026-04-25T07:28:27.918Z</time></trkpt><trkpt lat="42.4762013" lon="12.4006942"><ele>148.0</ele><time>2026-04-25T07:28:28.918Z</time></trkpt><trkpt lat="42.4762858" lon="12.4006039"><ele>148.0</ele><time>2026-04-25T07:28:29.917Z</time></trkpt><trkpt lat="42.4763658" lon="12.4005024"><ele>148.0</ele><time>2026-04-25T07:28:30.918Z</time></trkpt><trkpt lat="42.4764361" lon="12.4003922"><ele>148.8</ele><time>2026-04-25T07:28:31.918Z</time></trkpt><trkpt lat="42.4764951" lon="12.4002689"><ele>149.60000000000002</ele><time>2026-04-25T07:28:32.919Z</time></trkpt><trkpt lat="42.4765444" lon="12.4001369"><ele>150.39999999999998</ele><time>2026-04-25T07:28:33.918Z</time></trkpt><trkpt lat="42.4765795" lon="12.4000001"><ele>151.2</ele><time>2026-04-25T07:28:34.918Z</time></trkpt><trkpt lat="42.4766121" lon="12.3998844"><ele>152.0</ele><time>2026-04-25T07:28:35.917Z</time></trkpt><trkpt lat="42.4766547" lon="12.3997889"><ele>152.0</ele><time>2026-04-25T07:28:36.917Z</time></trkpt><trkpt lat="42.4767124" lon="12.3997171"><ele>152.0</ele><time>2026-04-25T07:28:37.918Z</time></trkpt><trkpt lat="42.4767783" lon="12.3996882"><ele>152.0</ele><time>2026-04-25T07:28:38.918Z</time></trkpt><trkpt lat="42.4768447" lon="12.3997045"><ele>152.0</ele><time>2026-04-25T07:28:39.917Z</time></trkpt><trkpt lat="42.4769013" lon="12.3997526"><ele>152.0</ele><time>2026-04-25T07:28:40.917Z</time></trkpt><trkpt lat="42.4769219" lon="12.3998384"><ele>152.0</ele><time>2026-04-25T07:28:41.918Z</time></trkpt><trkpt lat="42.4769169" lon="12.3999401"><ele>152.0</ele><time>2026-04-25T07:28:42.918Z</time></trkpt><trkpt lat="42.4768925" lon="12.4000513"><ele>152.0</ele><time>2026-04-25T07:28:43.918Z</time></trkpt><trkpt lat="42.4768634" lon="12.4001656"><ele>152.0</ele><time>2026-04-25T07:28:44.918Z</time></trkpt><trkpt lat="42.4768087" lon="12.4002979"><ele>152.0</ele><time>2026-04-25T07:28:45.917Z</time></trkpt><trkpt lat="42.4767633" lon="12.4004285"><ele>152.0</ele><time>2026-04-25T07:28:46.917Z</time></trkpt><trkpt lat="42.4767232" lon="12.4005618"><ele>152.0</ele><time>2026-04-25T07:28:47.918Z</time></trkpt><trkpt lat="42.4766814" lon="12.4006915"><ele>153.4</ele><time>2026-04-25T07:28:48.918Z</time></trkpt><trkpt lat="42.4766398" lon="12.400816"><ele>154.79999999999998</ele><time>2026-04-25T07:28:49.918Z</time></trkpt><trkpt lat="42.4765983" lon="12.4009381"><ele>156.2</ele><time>2026-04-25T07:28:50.919Z</time></trkpt><trkpt lat="42.4765543" lon="12.4010567"><ele>157.6</ele><time>2026-04-25T07:28:51.919Z</time></trkpt><trkpt lat="42.4765186" lon="12.401171"><ele>159.0</ele><time>2026-04-25T07:28:52.918Z</time></trkpt><trkpt lat="42.4764773" lon="12.4012879"><ele>160.6</ele><time>2026-04-25T07:28:53.918Z</time></trkpt><trkpt lat="42.4764357" lon="12.4014156"><ele>162.2</ele><time>2026-04-25T07:28:54.918Z</time></trkpt><trkpt lat="42.4763874" lon="12.4015385"><ele>163.79999999999998</ele><time>2026-04-25T07:28:55.919Z</time></trkpt><trkpt lat="42.4763468" lon="12.4016509"><ele>165.4</ele><time>2026-04-25T07:28:56.918Z</time></trkpt><trkpt lat="42.4763112" lon="12.4017564"><ele>167.0</ele><time>2026-04-25T07:28:57.917Z</time></trkpt><trkpt lat="42.476278" lon="12.4018555"><ele>166.5</ele><time>2026-04-25T07:28:58.917Z</time></trkpt><trkpt lat="42.4762427" lon="12.4019508"><ele>166.0</ele><time>2026-04-25T07:28:59.918Z</time></trkpt><trkpt lat="42.4762093" lon="12.4020408"><ele>165.5</ele><time>2026-04-25T07:29:00.917Z</time></trkpt><trkpt lat="42.4761589" lon="12.402182"><ele>165.0</ele><time>2026-04-25T07:29:02.918Z</time></trkpt><trkpt lat="42.4761342" lon="12.4022607"><ele>164.5</ele><time>2026-04-25T07:29:03.917Z</time></trkpt><trkpt lat="42.4761096" lon="12.4023412"><ele>164.0</ele><time>2026-04-25T07:29:04.917Z</time></trkpt><trkpt lat="42.4760828" lon="12.4024259"><ele>163.99999999999997</ele><time>2026-04-25T07:29:05.917Z</time></trkpt><trkpt lat="42.4760527" lon="12.4025121"><ele>164.0</ele><time>2026-04-25T07:29:06.916Z</time></trkpt><trkpt lat="42.4760268" lon="12.4026022"><ele>164.0</ele><time>2026-04-25T07:29:07.918Z</time></trkpt><trkpt lat="42.4759999" lon="12.4026894"><ele>164.0</ele><time>2026-04-25T07:29:08.917Z</time></trkpt><trkpt lat="42.475968" lon="12.4027879"><ele>164.0</ele><time>2026-04-25T07:29:09.918Z</time></trkpt><trkpt lat="42.4759312" lon="12.4028845"><ele>163.99999999999997</ele><time>2026-04-25T07:29:10.916Z</time></trkpt><trkpt lat="42.4759008" lon="12.402973"><ele>164.0</ele><time>2026-04-25T07:29:11.918Z</time></trkpt><trkpt lat="42.4758806" lon="12.4030631"><ele>164.66666666666666</ele><time>2026-04-25T07:29:12.919Z</time></trkpt><trkpt lat="42.4758651" lon="12.4031567"><ele>165.33333333333331</ele><time>2026-04-25T07:29:13.918Z</time></trkpt><trkpt lat="42.4758609" lon="12.4032439"><ele>166.0</ele><time>2026-04-25T07:29:14.917Z</time></trkpt><trkpt lat="42.4758754" lon="12.4034074"><ele>166.66666666666666</ele><time>2026-04-25T07:29:16.916Z</time></trkpt><trkpt lat="42.4758999" lon="12.403488"><ele>167.33333333333334</ele><time>2026-04-25T07:29:17.917Z</time></trkpt><trkpt lat="42.4759327" lon="12.4035671"><ele>168.0</ele><time>2026-04-25T07:29:18.917Z</time></trkpt><trkpt lat="42.4759765" lon="12.4036425"><ele>168.0</ele><time>2026-04-25T07:29:19.917Z</time></trkpt><trkpt lat="42.4760263" lon="12.4037116"><ele>168.0</ele><time>2026-04-25T07:29:20.919Z</time></trkpt><trkpt lat="42.4760842" lon="12.4037748"><ele>168.0</ele><time>2026-04-25T07:29:21.918Z</time></trkpt><trkpt lat="42.4761443" lon="12.4038246"><ele>168.0</ele><time>2026-04-25T07:29:22.919Z</time></trkpt><trkpt lat="42.4762089" lon="12.4038598"><ele>168.0</ele><time>2026-04-25T07:29:23.919Z</time></trkpt><trkpt lat="42.4762765" lon="12.4038805"><ele>168.0</ele><time>2026-04-25T07:29:24.918Z</time></trkpt><trkpt lat="42.476345" lon="12.4038821"><ele>168.0</ele><time>2026-04-25T07:29:25.918Z</time></trkpt><trkpt lat="42.476411" lon="12.4038719"><ele>169.0</ele><time>2026-04-25T07:29:26.919Z</time></trkpt><trkpt lat="42.4765278" lon="12.4038164"><ele>170.0</ele><time>2026-04-25T07:29:28.918Z</time></trkpt><trkpt lat="42.4765856" lon="12.4037664"><ele>171.0</ele><time>2026-04-25T07:29:29.918Z</time></trkpt><trkpt lat="42.4766726" lon="12.4036358"><ele>172.0</ele><time>2026-04-25T07:29:31.917Z</time></trkpt><trkpt lat="42.4767276" lon="12.4034857"><ele>173.0</ele><time>2026-04-25T07:29:33.917Z</time></trkpt><trkpt lat="42.4767499" lon="12.4033999"><ele>173.0</ele><time>2026-04-25T07:29:34.918Z</time></trkpt><trkpt lat="42.47677" lon="12.4033188"><ele>173.0</ele><time>2026-04-25T07:29:35.917Z</time></trkpt><trkpt lat="42.4767886" lon="12.4032332"><ele>173.0</ele><time>2026-04-25T07:29:36.918Z</time></trkpt><trkpt lat="42.4768065" lon="12.403141"><ele>173.0</ele><time>2026-04-25T07:29:37.917Z</time></trkpt><trkpt lat="42.4768248" lon="12.4030486"><ele>173.0</ele><time>2026-04-25T07:29:38.918Z</time></trkpt><trkpt lat="42.4768459" lon="12.4029561"><ele>173.0</ele><time>2026-04-25T07:29:39.918Z</time></trkpt><trkpt lat="42.4768702" lon="12.4028638"><ele>173.0</ele><time>2026-04-25T07:29:40.918Z</time></trkpt><trkpt lat="42.476895" lon="12.4027771"><ele>173.2</ele><time>2026-04-25T07:29:41.916Z</time></trkpt><trkpt lat="42.4769385" lon="12.4026362"><ele>173.4</ele><time>2026-04-25T07:29:43.917Z</time></trkpt><trkpt lat="42.4769896" lon="12.402518"><ele>173.6</ele><time>2026-04-25T07:29:45.918Z</time></trkpt><trkpt lat="42.4770255" lon="12.4024353"><ele>173.79999999999998</ele><time>2026-04-25T07:29:47.202Z</time></trkpt><trkpt lat="42.4770871" lon="12.4023283"><ele>174.0</ele><time>2026-04-25T07:29:48.911Z</time></trkpt><trkpt lat="42.4771268" lon="12.4022566"><ele>173.83333333333334</ele><time>2026-04-25T07:29:49.911Z</time></trkpt><trkpt lat="42.477169" lon="12.4021791"><ele>173.66666666666666</ele><time>2026-04-25T07:29:50.911Z</time></trkpt><trkpt lat="42.477219" lon="12.4021047"><ele>173.5</ele><time>2026-04-25T07:29:51.911Z</time></trkpt><trkpt lat="42.4772688" lon="12.4020299"><ele>173.33333333333331</ele><time>2026-04-25T07:29:52.911Z</time></trkpt><trkpt lat="42.4773128" lon="12.4019591"><ele>173.16666666666666</ele><time>2026-04-25T07:29:53.911Z</time></trkpt><trkpt lat="42.4773833" lon="12.4018473"><ele>173.0</ele><time>2026-04-25T07:29:55.911Z</time></trkpt><trkpt lat="42.4774388" lon="12.4017595"><ele>173.0</ele><time>2026-04-25T07:29:57.912Z</time></trkpt><trkpt lat="42.4774895" lon="12.4016852"><ele>173.0</ele><time>2026-04-25T07:29:59.911Z</time></trkpt><trkpt lat="42.4775358" lon="12.4016183"><ele>173.0</ele><time>2026-04-25T07:30:01.911Z</time></trkpt><trkpt lat="42.4775883" lon="12.4015156"><ele>173.0</ele><time>2026-04-25T07:31:05.911Z</time></trkpt><trkpt lat="42.4776478" lon="12.401404"><ele>173.0</ele><time>2026-04-25T07:31:07.911Z</time></trkpt><trkpt lat="42.4777227" lon="12.4012716"><ele>173.16666666666666</ele><time>2026-04-25T07:31:09.911Z</time></trkpt><trkpt lat="42.4777642" lon="12.4012022"><ele>173.33333333333331</ele><time>2026-04-25T07:31:10.911Z</time></trkpt><trkpt lat="42.4778063" lon="12.4011294"><ele>173.5</ele><time>2026-04-25T07:31:11.911Z</time></trkpt><trkpt lat="42.4778515" lon="12.4010559"><ele>173.66666666666666</ele><time>2026-04-25T07:31:12.912Z</time></trkpt><trkpt lat="42.4779132" lon="12.4009675"><ele>173.83333333333334</ele><time>2026-04-25T07:31:13.912Z</time></trkpt><trkpt lat="42.4779764" lon="12.4008851"><ele>174.0</ele><time>2026-04-25T07:31:14.911Z</time></trkpt><trkpt lat="42.4780491" lon="12.4008049"><ele>174.6</ele><time>2026-04-25T07:31:15.912Z</time></trkpt><trkpt lat="42.4781188" lon="12.4007276"><ele>175.2</ele><time>2026-04-25T07:31:16.912Z</time></trkpt><trkpt lat="42.4781925" lon="12.4006548"><ele>175.79999999999998</ele><time>2026-04-25T07:31:17.911Z</time></trkpt><trkpt lat="42.4782715" lon="12.4005844"><ele>176.39999999999998</ele><time>2026-04-25T07:31:18.912Z</time></trkpt><trkpt lat="42.4783542" lon="12.4005232"><ele>177.0</ele><time>2026-04-25T07:31:19.911Z</time></trkpt><trkpt lat="42.4784408" lon="12.4004569"><ele>178.2</ele><time>2026-04-25T07:31:20.911Z</time></trkpt><trkpt lat="42.4785277" lon="12.4003899"><ele>179.39999999999998</ele><time>2026-04-25T07:31:21.911Z</time></trkpt><trkpt lat="42.4786133" lon="12.4003262"><ele>180.60000000000002</ele><time>2026-04-25T07:31:22.912Z</time></trkpt><trkpt lat="42.4787072" lon="12.4002754"><ele>181.8</ele><time>2026-04-25T07:31:23.912Z</time></trkpt><trkpt lat="42.4787985" lon="12.4002286"><ele>183.0</ele><time>2026-04-25T07:31:24.911Z</time></trkpt><trkpt lat="42.478897" lon="12.4001934"><ele>184.60000000000002</ele><time>2026-04-25T07:31:25.911Z</time></trkpt><trkpt lat="42.4789946" lon="12.4001686"><ele>186.20000000000002</ele><time>2026-04-25T07:31:26.911Z</time></trkpt><trkpt lat="42.4790941" lon="12.4001521"><ele>187.8</ele><time>2026-04-25T07:31:27.911Z</time></trkpt><trkpt lat="42.4791891" lon="12.4001372"><ele>189.4</ele><time>2026-04-25T07:31:28.911Z</time></trkpt><trkpt lat="42.4792944" lon="12.4001163"><ele>191.0</ele><time>2026-04-25T07:31:29.912Z</time></trkpt><trkpt lat="42.4794039" lon="12.400105"><ele>191.0</ele><time>2026-04-25T07:31:30.911Z</time></trkpt><trkpt lat="42.4795116" lon="12.4000927"><ele>191.0</ele><time>2026-04-25T07:31:31.911Z</time></trkpt><trkpt lat="42.47962" lon="12.4000707"><ele>191.0</ele><time>2026-04-25T07:31:32.911Z</time></trkpt><trkpt lat="42.4797265" lon="12.4000558"><ele>191.0</ele><time>2026-04-25T07:31:33.912Z</time></trkpt><trkpt lat="42.4798361" lon="12.4000373"><ele>191.0</ele><time>2026-04-25T07:31:34.911Z</time></trkpt><trkpt lat="42.4799322" lon="12.400027"><ele>191.20000000000002</ele><time>2026-04-25T07:31:35.912Z</time></trkpt><trkpt lat="42.4800224" lon="12.4000133"><ele>191.4</ele><time>2026-04-25T07:31:36.911Z</time></trkpt><trkpt lat="42.4801201" lon="12.4000039"><ele>191.6</ele><time>2026-04-25T07:31:37.911Z</time></trkpt><trkpt lat="42.4802197" lon="12.4000054"><ele>191.8</ele><time>2026-04-25T07:31:38.912Z</time></trkpt><trkpt lat="42.4803225" lon="12.4000292"><ele>192.0</ele><time>2026-04-25T07:31:39.911Z</time></trkpt><trkpt lat="42.4804164" lon="12.4000738"><ele>193.39999999999998</ele><time>2026-04-25T07:31:40.911Z</time></trkpt><trkpt lat="42.4805078" lon="12.4001318"><ele>194.79999999999998</ele><time>2026-04-25T07:31:41.911Z</time></trkpt><trkpt lat="42.4805947" lon="12.4002079"><ele>196.2</ele><time>2026-04-25T07:31:42.911Z</time></trkpt><trkpt lat="42.4806914" lon="12.4002899"><ele>197.6</ele><time>2026-04-25T07:31:43.911Z</time></trkpt><trkpt lat="42.4807915" lon="12.4003814"><ele>199.0</ele><time>2026-04-25T07:31:44.911Z</time></trkpt><trkpt lat="42.4808965" lon="12.4004636"><ele>196.25</ele><time>2026-04-25T07:31:45.912Z</time></trkpt><trkpt lat="42.4810045" lon="12.4005344"><ele>193.5</ele><time>2026-04-25T07:31:46.911Z</time></trkpt><trkpt lat="42.4811172" lon="12.4005816"><ele>190.75</ele><time>2026-04-25T07:31:47.912Z</time></trkpt><trkpt lat="42.4812319" lon="12.4005968"><ele>188.0</ele><time>2026-04-25T07:31:48.912Z</time></trkpt><trkpt lat="42.4813372" lon="12.4005892"><ele>188.0</ele><time>2026-04-25T07:31:49.911Z</time></trkpt><trkpt lat="42.4814381" lon="12.4005679"><ele>188.0</ele><time>2026-04-25T07:31:50.911Z</time></trkpt><trkpt lat="42.4815443" lon="12.4005364"><ele>188.0</ele><time>2026-04-25T07:31:51.911Z</time></trkpt><trkpt lat="42.4816527" lon="12.4004974"><ele>188.0</ele><time>2026-04-25T07:31:52.911Z</time></trkpt><trkpt lat="42.4817639" lon="12.400461"><ele>188.0</ele><time>2026-04-25T07:31:53.911Z</time></trkpt><trkpt lat="42.4818778" lon="12.4004231"><ele>189.0</ele><time>2026-04-25T07:31:54.911Z</time></trkpt><trkpt lat="42.4819831" lon="12.4003833"><ele>190.0</ele><time>2026-04-25T07:31:55.911Z</time></trkpt><trkpt lat="42.4820967" lon="12.4003539"><ele>191.0</ele><time>2026-04-25T07:31:56.912Z</time></trkpt><trkpt lat="42.4822175" lon="12.4003223"><ele>192.0</ele><time>2026-04-25T07:31:57.911Z</time></trkpt><trkpt lat="42.4823491" lon="12.4003059"><ele>192.0</ele><time>2026-04-25T07:31:58.912Z</time></trkpt><trkpt lat="42.4824702" lon="12.4003035"><ele>192.0</ele><time>2026-04-25T07:31:59.911Z</time></trkpt><trkpt lat="42.4825792" lon="12.4003125"><ele>192.0</ele><time>2026-04-25T07:32:00.911Z</time></trkpt><trkpt lat="42.4826905" lon="12.4003222"><ele>192.0</ele><time>2026-04-25T07:32:01.912Z</time></trkpt><trkpt lat="42.4828126" lon="12.4003421"><ele>191.75</ele><time>2026-04-25T07:32:02.911Z</time></trkpt><trkpt lat="42.4829367" lon="12.4003821"><ele>191.5</ele><time>2026-04-25T07:32:03.912Z</time></trkpt><trkpt lat="42.4830571" lon="12.4004374"><ele>191.25</ele><time>2026-04-25T07:32:04.911Z</time></trkpt><trkpt lat="42.4831707" lon="12.4005098"><ele>191.0</ele><time>2026-04-25T07:32:05.912Z</time></trkpt><trkpt lat="42.4832811" lon="12.4005925"><ele>190.0</ele><time>2026-04-25T07:32:06.911Z</time></trkpt><trkpt lat="42.4833904" lon="12.4006902"><ele>189.0</ele><time>2026-04-25T07:32:07.911Z</time></trkpt><trkpt lat="42.4834906" lon="12.4007922"><ele>188.0</ele><time>2026-04-25T07:32:08.911Z</time></trkpt><trkpt lat="42.4835821" lon="12.4008864"><ele>187.0</ele><time>2026-04-25T07:32:09.911Z</time></trkpt><trkpt lat="42.4836688" lon="12.4009741"><ele>187.0</ele><time>2026-04-25T07:32:10.911Z</time></trkpt><trkpt lat="42.4837588" lon="12.4010705"><ele>187.0</ele><time>2026-04-25T07:32:11.911Z</time></trkpt><trkpt lat="42.4838654" lon="12.4011768"><ele>187.0</ele><time>2026-04-25T07:32:12.911Z</time></trkpt><trkpt lat="42.4839669" lon="12.4012785"><ele>187.0</ele><time>2026-04-25T07:32:13.911Z</time></trkpt><trkpt lat="42.4840629" lon="12.4013741"><ele>187.0</ele><time>2026-04-25T07:32:14.912Z</time></trkpt><trkpt lat="42.4841703" lon="12.4014694"><ele>187.0</ele><time>2026-04-25T07:32:15.911Z</time></trkpt><trkpt lat="42.4842733" lon="12.4015622"><ele>187.0</ele><time>2026-04-25T07:32:16.911Z</time></trkpt><trkpt lat="42.484372" lon="12.4016546"><ele>187.0</ele><time>2026-04-25T07:32:17.911Z</time></trkpt><trkpt lat="42.4844719" lon="12.4017434"><ele>187.0</ele><time>2026-04-25T07:32:18.911Z</time></trkpt><trkpt lat="42.4845607" lon="12.4018361"><ele>187.0</ele><time>2026-04-25T07:32:19.912Z</time></trkpt><trkpt lat="42.4846492" lon="12.4019374"><ele>187.0</ele><time>2026-04-25T07:32:20.911Z</time></trkpt><trkpt lat="42.4847287" lon="12.4020415"><ele>187.0</ele><time>2026-04-25T07:32:21.912Z</time></trkpt><trkpt lat="42.4848101" lon="12.4021644"><ele>187.5</ele><time>2026-04-25T07:32:22.912Z</time></trkpt><trkpt lat="42.4848879" lon="12.4022884"><ele>188.0</ele><time>2026-04-25T07:32:23.911Z</time></trkpt><trkpt lat="42.4849632" lon="12.4024153"><ele>188.5</ele><time>2026-04-25T07:32:24.911Z</time></trkpt><trkpt lat="42.4850435" lon="12.402527"><ele>189.0</ele><time>2026-04-25T07:32:25.911Z</time></trkpt><trkpt lat="42.4851207" lon="12.4026339"><ele>189.0</ele><time>2026-04-25T07:32:26.912Z</time></trkpt><trkpt lat="42.4852055" lon="12.4027189"><ele>189.0</ele><time>2026-04-25T07:32:27.911Z</time></trkpt><trkpt lat="42.4852897" lon="12.4027962"><ele>189.0</ele><time>2026-04-25T07:32:28.911Z</time></trkpt><trkpt lat="42.4853717" lon="12.4028628"><ele>189.0</ele><time>2026-04-25T07:32:29.911Z</time></trkpt><trkpt lat="42.48546" lon="12.4029182"><ele>189.0</ele><time>2026-04-25T07:32:30.911Z</time></trkpt><trkpt lat="42.4855463" lon="12.4029705"><ele>187.66666666666666</ele><time>2026-04-25T07:32:31.912Z</time></trkpt><trkpt lat="42.4856258" lon="12.4030137"><ele>186.33333333333334</ele><time>2026-04-25T07:32:32.912Z</time></trkpt><trkpt lat="42.485708" lon="12.4030507"><ele>185.0</ele><time>2026-04-25T07:32:33.912Z</time></trkpt><trkpt lat="42.4857862" lon="12.4030912"><ele>183.66666666666669</ele><time>2026-04-25T07:32:34.911Z</time></trkpt><trkpt lat="42.4858564" lon="12.4031264"><ele>182.33333333333334</ele><time>2026-04-25T07:32:35.911Z</time></trkpt><trkpt lat="42.4859617" lon="12.4031783"><ele>181.0</ele><time>2026-04-25T07:32:37.911Z</time></trkpt><trkpt lat="42.4860411" lon="12.4032134"><ele>181.0</ele><time>2026-04-25T07:32:39.911Z</time></trkpt><trkpt lat="42.4861074" lon="12.4032488"><ele>181.0</ele><time>2026-04-25T07:32:41.911Z</time></trkpt><trkpt lat="42.4861926" lon="12.4032387"><ele>181.0</ele><time>2026-04-25T07:32:44.911Z</time></trkpt><trkpt lat="42.486248" lon="12.4031255"><ele>181.0</ele><time>2026-04-25T07:32:47.911Z</time></trkpt><trkpt lat="42.4862733" lon="12.4029886"><ele>181.0</ele><time>2026-04-25T07:32:49.911Z</time></trkpt><trkpt lat="42.4863014" lon="12.4028471"><ele>180.5</ele><time>2026-04-25T07:32:51.912Z</time></trkpt><trkpt lat="42.4863271" lon="12.4027147"><ele>180.0</ele><time>2026-04-25T07:32:53.911Z</time></trkpt><trkpt lat="42.4863451" lon="12.4026276"><ele>179.5</ele><time>2026-04-25T07:32:55.911Z</time></trkpt><trkpt lat="42.4863623" lon="12.4025155"><ele>179.0</ele><time>2026-04-25T07:33:05.912Z</time></trkpt><trkpt lat="42.4863708" lon="12.4024212"><ele>178.5</ele><time>2026-04-25T07:33:07.911Z</time></trkpt><trkpt lat="42.4863948" lon="12.4022586"><ele>178.0</ele><time>2026-04-25T07:33:09.912Z</time></trkpt><trkpt lat="42.4864149" lon="12.4021257"><ele>177.60000000000002</ele><time>2026-04-25T07:33:10.911Z</time></trkpt><trkpt lat="42.486433" lon="12.4020109"><ele>177.20000000000002</ele><time>2026-04-25T07:33:11.911Z</time></trkpt><trkpt lat="42.4864477" lon="12.4019127"><ele>176.8</ele><time>2026-04-25T07:33:12.911Z</time></trkpt><trkpt lat="42.4864709" lon="12.4017495"><ele>176.4</ele><time>2026-04-25T07:33:14.911Z</time></trkpt><trkpt lat="42.4865248" lon="12.4016178"><ele>176.0</ele><time>2026-04-25T07:33:16.911Z</time></trkpt><trkpt lat="42.4865953" lon="12.4014988"><ele>176.0</ele><time>2026-04-25T07:33:18.912Z</time></trkpt><trkpt lat="42.486666" lon="12.4013656"><ele>176.0</ele><time>2026-04-25T07:33:20.911Z</time></trkpt><trkpt lat="42.486706" lon="12.4012961"><ele>176.0</ele><time>2026-04-25T07:33:21.912Z</time></trkpt><trkpt lat="42.4867723" lon="12.401184"><ele>176.0</ele><time>2026-04-25T07:33:23.911Z</time></trkpt><trkpt lat="42.4868237" lon="12.4010956"><ele>176.0</ele><time>2026-04-25T07:33:25.912Z</time></trkpt><trkpt lat="42.486877" lon="12.4010052"><ele>175.0</ele><time>2026-04-25T07:33:27.911Z</time></trkpt><trkpt lat="42.4869253" lon="12.4009134"><ele>174.0</ele><time>2026-04-25T07:33:29.911Z</time></trkpt><trkpt lat="42.4869821" lon="12.4008421"><ele>173.0</ele><time>2026-04-25T07:33:32.912Z</time></trkpt><trkpt lat="42.4870235" lon="12.4007691"><ele>172.0</ele><time>2026-04-25T07:33:35.911Z</time></trkpt><trkpt lat="42.4870684" lon="12.400694"><ele>171.0</ele><time>2026-04-25T07:33:38.912Z</time></trkpt><trkpt lat="42.4871101" lon="12.4006256"><ele>170.0</ele><time>2026-04-25T07:33:50.911Z</time></trkpt><trkpt lat="42.4871491" lon="12.400552"><ele>169.0</ele><time>2026-04-25T07:33:52.912Z</time></trkpt><trkpt lat="42.4871924" lon="12.4004585"><ele>166.66666666666669</ele><time>2026-04-25T07:33:54.911Z</time></trkpt><trkpt lat="42.4872522" lon="12.4003705"><ele>164.33333333333334</ele><time>2026-04-25T07:33:56.911Z</time></trkpt><trkpt lat="42.4873015" lon="12.4002703"><ele>162.0</ele><time>2026-04-25T07:33:58.911Z</time></trkpt><trkpt lat="42.487356" lon="12.400177"><ele>159.66666666666666</ele><time>2026-04-25T07:34:00.911Z</time></trkpt><trkpt lat="42.4874055" lon="12.4000939"><ele>157.33333333333331</ele><time>2026-04-25T07:34:02.911Z</time></trkpt><trkpt lat="42.4874529" lon="12.4000037"><ele>155.0</ele><time>2026-04-25T07:34:04.911Z</time></trkpt><trkpt lat="42.4874937" lon="12.3999198"><ele>155.0</ele><time>2026-04-25T07:34:06.911Z</time></trkpt><trkpt lat="42.4875414" lon="12.3998513"><ele>155.0</ele><time>2026-04-25T07:34:08.911Z</time></trkpt><trkpt lat="42.4875811" lon="12.3997786"><ele>155.0</ele><time>2026-04-25T07:34:10.912Z</time></trkpt><trkpt lat="42.487628" lon="12.3997043"><ele>155.0</ele><time>2026-04-25T07:34:12.911Z</time></trkpt><trkpt lat="42.4876749" lon="12.3996274"><ele>155.0</ele><time>2026-04-25T07:34:14.911Z</time></trkpt><trkpt lat="42.4877255" lon="12.3995302"><ele>155.0</ele><time>2026-04-25T07:34:17.911Z</time></trkpt><trkpt lat="42.4877783" lon="12.3994467"><ele>153.66666666666666</ele><time>2026-04-25T07:34:20.912Z</time></trkpt><trkpt lat="42.4878229" lon="12.3993696"><ele>152.33333333333331</ele><time>2026-04-25T07:34:23.911Z</time></trkpt><trkpt lat="42.4878728" lon="12.3992717"><ele>151.0</ele><time>2026-04-25T07:34:26.911Z</time></trkpt><trkpt lat="42.487928" lon="12.399176"><ele>149.66666666666666</ele><time>2026-04-25T07:34:29.911Z</time></trkpt><trkpt lat="42.4879743" lon="12.3990991"><ele>148.33333333333334</ele><time>2026-04-25T07:34:32.911Z</time></trkpt><trkpt lat="42.4880168" lon="12.3990179"><ele>147.0</ele><time>2026-04-25T07:34:36.911Z</time></trkpt><trkpt lat="42.4880628" lon="12.3989488"><ele>145.42857142857142</ele><time>2026-04-25T07:34:40.911Z</time></trkpt><trkpt lat="42.4881035" lon="12.3988492"><ele>143.85714285714286</ele><time>2026-04-25T07:34:44.911Z</time></trkpt><trkpt lat="42.4881304" lon="12.3987597"><ele>142.28571428571428</ele><time>2026-04-25T07:34:48.911Z</time></trkpt><trkpt lat="42.4881513" lon="12.3986764"><ele>140.71428571428572</ele><time>2026-04-25T07:34:51.911Z</time></trkpt><trkpt lat="42.4881925" lon="12.3985819"><ele>139.14285714285714</ele><time>2026-04-25T07:34:55.911Z</time></trkpt><trkpt lat="42.4882427" lon="12.3984995"><ele>137.57142857142856</ele><time>2026-04-25T07:34:59.911Z</time></trkpt><trkpt lat="42.4882892" lon="12.3984354"><ele>136.0</ele><time>2026-04-25T07:35:02.912Z</time></trkpt><trkpt lat="42.4883346" lon="12.3983547"><ele>135.42857142857142</ele><time>2026-04-25T07:35:07.911Z</time></trkpt><trkpt lat="42.4883706" lon="12.3982757"><ele>134.85714285714286</ele><time>2026-04-25T07:35:10.911Z</time></trkpt><trkpt lat="42.4884095" lon="12.3981944"><ele>134.28571428571428</ele><time>2026-04-25T07:35:13.911Z</time></trkpt><trkpt lat="42.4884484" lon="12.3981203"><ele>133.71428571428572</ele><time>2026-04-25T07:35:15.911Z</time></trkpt><trkpt lat="42.4884863" lon="12.3980479"><ele>133.14285714285714</ele><time>2026-04-25T07:35:17.912Z</time></trkpt><trkpt lat="42.4885305" lon="12.3979766"><ele>132.57142857142856</ele><time>2026-04-25T07:35:19.912Z</time></trkpt><trkpt lat="42.4885811" lon="12.3978983"><ele>132.0</ele><time>2026-04-25T07:35:21.911Z</time></trkpt><trkpt lat="42.4886333" lon="12.3978314"><ele>131.14285714285714</ele><time>2026-04-25T07:35:23.911Z</time></trkpt><trkpt lat="42.4886775" lon="12.3977704"><ele>130.28571428571428</ele><time>2026-04-25T07:35:25.911Z</time></trkpt><trkpt lat="42.4887193" lon="12.3977017"><ele>129.42857142857144</ele><time>2026-04-25T07:35:27.911Z</time></trkpt><trkpt lat="42.48876" lon="12.3976364"><ele>128.57142857142856</ele><time>2026-04-25T07:35:29.911Z</time></trkpt><trkpt lat="42.4888122" lon="12.3975349"><ele>127.71428571428572</ele><time>2026-04-25T07:35:32.912Z</time></trkpt><trkpt lat="42.4888435" lon="12.3974464"><ele>126.85714285714286</ele><time>2026-04-25T07:35:35.912Z</time></trkpt><trkpt lat="42.4888683" lon="12.397343"><ele>126.0</ele><time>2026-04-25T07:35:39.912Z</time></trkpt><trkpt lat="42.4888895" lon="12.397252"><ele>125.71428571428572</ele><time>2026-04-25T07:35:42.912Z</time></trkpt><trkpt lat="42.4889115" lon="12.397156"><ele>125.42857142857143</ele><time>2026-04-25T07:35:46.911Z</time></trkpt><trkpt lat="42.4889317" lon="12.3970584"><ele>125.14285714285714</ele><time>2026-04-25T07:35:51.911Z</time></trkpt><trkpt lat="42.4889667" lon="12.3969595"><ele>124.85714285714286</ele><time>2026-04-25T07:35:55.912Z</time></trkpt><trkpt lat="42.4890016" lon="12.3968826"><ele>124.57142857142858</ele><time>2026-04-25T07:35:58.912Z</time></trkpt><trkpt lat="42.4890359" lon="12.3967957"><ele>124.28571428571429</ele><time>2026-04-25T07:36:02.911Z</time></trkpt><trkpt lat="42.4890513" lon="12.3967033"><ele>124.0</ele><time>2026-04-25T07:36:06.911Z</time></trkpt><trkpt lat="42.4890802" lon="12.3966126"><ele>124.00000000000001</ele><time>2026-04-25T07:36:10.911Z</time></trkpt><trkpt lat="42.4891007" lon="12.3965265"><ele>124.0</ele><time>2026-04-25T07:36:14.911Z</time></trkpt><trkpt lat="42.4891348" lon="12.3964324"><ele>124.0</ele><time>2026-04-25T07:36:18.911Z</time></trkpt><trkpt lat="42.4891898" lon="12.396332"><ele>124.0</ele><time>2026-04-25T07:36:21.911Z</time></trkpt><trkpt lat="42.4892374" lon="12.3962339"><ele>124.00000000000001</ele><time>2026-04-25T07:36:24.911Z</time></trkpt><trkpt lat="42.4892969" lon="12.3961576"><ele>124.0</ele><time>2026-04-25T07:36:27.911Z</time></trkpt><trkpt lat="42.4893491" lon="12.3960909"><ele>123.71428571428572</ele><time>2026-04-25T07:36:30.912Z</time></trkpt><trkpt lat="42.4893913" lon="12.3960203"><ele>123.42857142857144</ele><time>2026-04-25T07:36:40.912Z</time></trkpt><trkpt lat="42.4894308" lon="12.3959507"><ele>123.14285714285714</ele><time>2026-04-25T07:36:43.911Z</time></trkpt><trkpt lat="42.4894645" lon="12.3958689"><ele>122.85714285714286</ele><time>2026-04-25T07:36:47.912Z</time></trkpt><trkpt lat="42.4895045" lon="12.3957791"><ele>122.57142857142857</ele><time>2026-04-25T07:36:50.911Z</time></trkpt><trkpt lat="42.489533" lon="12.3956974"><ele>122.28571428571428</ele><time>2026-04-25T07:36:52.912Z</time></trkpt><trkpt lat="42.4895669" lon="12.3956041"><ele>121.99999999999999</ele><time>2026-04-25T07:36:54.911Z</time></trkpt><trkpt lat="42.4896016" lon="12.3955052"><ele>121.33333333333333</ele><time>2026-04-25T07:36:56.911Z</time></trkpt><trkpt lat="42.4896385" lon="12.3954133"><ele>120.66666666666666</ele><time>2026-04-25T07:36:58.911Z</time></trkpt><trkpt lat="42.489706" lon="12.3953324"><ele>120.0</ele><time>2026-04-25T07:37:01.912Z</time></trkpt><trkpt lat="42.4897723" lon="12.3952904"><ele>119.33333333333334</ele><time>2026-04-25T07:37:04.911Z</time></trkpt><trkpt lat="42.489838" lon="12.3952602"><ele>118.66666666666667</ele><time>2026-04-25T07:37:07.911Z</time></trkpt><trkpt lat="42.489885" lon="12.3951889"><ele>118.0</ele><time>2026-04-25T07:37:10.912Z</time></trkpt><trkpt lat="42.489925" lon="12.3951063"><ele>118.00000000000001</ele><time>2026-04-25T07:37:13.912Z</time></trkpt><trkpt lat="42.4899515" lon="12.3950273"><ele>118.0</ele><time>2026-04-25T07:37:15.911Z</time></trkpt><trkpt lat="42.4899909" lon="12.3949175"><ele>118.0</ele><time>2026-04-25T07:37:18.911Z</time></trkpt><trkpt lat="42.4900212" lon="12.3948098"><ele>118.0</ele><time>2026-04-25T07:37:21.911Z</time></trkpt><trkpt lat="42.4900465" lon="12.3947031"><ele>118.00000000000001</ele><time>2026-04-25T07:37:24.912Z</time></trkpt><trkpt lat="42.4900605" lon="12.3945876"><ele>118.0</ele><time>2026-04-25T07:37:28.911Z</time></trkpt><trkpt lat="42.4900404" lon="12.3945027"><ele>116.50000000000001</ele><time>2026-04-25T07:37:30.911Z</time></trkpt><trkpt lat="42.4899995" lon="12.3943937"><ele>115.0</ele><time>2026-04-25T07:37:33.912Z</time></trkpt><trkpt lat="42.4899628" lon="12.3942863"><ele>113.5</ele><time>2026-04-25T07:37:36.911Z</time></trkpt><trkpt lat="42.4899612" lon="12.394183"><ele>112.0</ele><time>2026-04-25T07:37:39.911Z</time></trkpt><trkpt lat="42.4900036" lon="12.3940932"><ele>110.50000000000001</ele><time>2026-04-25T07:37:43.912Z</time></trkpt><trkpt lat="42.4900295" lon="12.3940074"><ele>109.0</ele><time>2026-04-25T07:37:46.911Z</time></trkpt><trkpt lat="42.4900728" lon="12.393915"><ele>107.33333333333334</ele><time>2026-04-25T07:37:51.911Z</time></trkpt><trkpt lat="42.4900724" lon="12.3938271"><ele>105.66666666666667</ele><time>2026-04-25T07:37:57.911Z</time></trkpt><trkpt lat="42.4900026" lon="12.3937989"><ele>104.0</ele><time>2026-04-25T07:38:05.912Z</time></trkpt><trkpt lat="42.4899563" lon="12.3937271"><ele>102.33333333333334</ele><time>2026-04-25T07:38:08.911Z</time></trkpt><trkpt lat="42.4899322" lon="12.393607"><ele>100.66666666666667</ele><time>2026-04-25T07:38:11.911Z</time></trkpt><trkpt lat="42.4898999" lon="12.3934818"><ele>99.0</ele><time>2026-04-25T07:38:14.911Z</time></trkpt><trkpt lat="42.4898916" lon="12.3933691"><ele>99.0</ele><time>2026-04-25T07:38:17.912Z</time></trkpt><trkpt lat="42.4899046" lon="12.393281"><ele>99.0</ele><time>2026-04-25T07:38:23.911Z</time></trkpt><trkpt lat="42.4899186" lon="12.3931925"><ele>99.0</ele><time>2026-04-25T07:38:42.911Z</time></trkpt><trkpt lat="42.4899148" lon="12.3931052"><ele>99.0</ele><time>2026-04-25T07:38:44.912Z</time></trkpt><trkpt lat="42.4899047" lon="12.3929845"><ele>99.0</ele><time>2026-04-25T07:38:47.911Z</time></trkpt><trkpt lat="42.4899049" lon="12.3928973"><ele>99.0</ele><time>2026-04-25T07:38:49.911Z</time></trkpt><trkpt lat="42.4899147" lon="12.39281"><ele>99.0</ele><time>2026-04-25T07:38:51.911Z</time></trkpt><trkpt lat="42.4899118" lon="12.3927034"><ele>98.28571428571429</ele><time>2026-04-25T07:38:54.912Z</time></trkpt><trkpt lat="42.4898664" lon="12.3926243"><ele>97.57142857142857</ele><time>2026-04-25T07:38:57.911Z</time></trkpt><trkpt lat="42.4898028" lon="12.392593"><ele>96.85714285714286</ele><time>2026-04-25T07:38:59.911Z</time></trkpt><trkpt lat="42.4897482" lon="12.3925491"><ele>96.14285714285714</ele><time>2026-04-25T07:39:01.911Z</time></trkpt><trkpt lat="42.4897442" lon="12.3924453"><ele>95.42857142857142</ele><time>2026-04-25T07:39:05.911Z</time></trkpt><trkpt lat="42.4897757" lon="12.3923698"><ele>94.71428571428571</ele><time>2026-04-25T07:39:07.912Z</time></trkpt><trkpt lat="42.4898194" lon="12.3922713"><ele>94.0</ele><time>2026-04-25T07:39:10.911Z</time></trkpt><trkpt lat="42.4898762" lon="12.3921951"><ele>92.2</ele><time>2026-04-25T07:39:13.912Z</time></trkpt><trkpt lat="42.489911" lon="12.392091"><ele>90.4</ele><time>2026-04-25T07:39:15.912Z</time></trkpt><trkpt lat="42.4899487" lon="12.3919693"><ele>88.6</ele><time>2026-04-25T07:39:17.912Z</time></trkpt><trkpt lat="42.4899997" lon="12.3918264"><ele>86.8</ele><time>2026-04-25T07:39:19.911Z</time></trkpt><trkpt lat="42.4900328" lon="12.3917336"><ele>85.0</ele><time>2026-04-25T07:39:20.911Z</time></trkpt><trkpt lat="42.4900688" lon="12.3916174"><ele>85.0</ele><time>2026-04-25T07:39:21.911Z</time></trkpt><trkpt lat="42.4901056" lon="12.3915018"><ele>85.0</ele><time>2026-04-25T07:39:22.911Z</time></trkpt><trkpt lat="42.4901397" lon="12.3913908"><ele>85.0</ele><time>2026-04-25T07:39:23.911Z</time></trkpt><trkpt lat="42.490167" lon="12.3912928"><ele>85.0</ele><time>2026-04-25T07:39:24.911Z</time></trkpt><trkpt lat="42.4901956" lon="12.3912011"><ele>85.0</ele><time>2026-04-25T07:39:25.911Z</time></trkpt><trkpt lat="42.4902189" lon="12.3911202"><ele>85.0</ele><time>2026-04-25T07:39:26.911Z</time></trkpt><trkpt lat="42.4902433" lon="12.3909757"><ele>84.83333333333333</ele><time>2026-04-25T07:39:28.912Z</time></trkpt><trkpt lat="42.4902758" lon="12.3908562"><ele>84.66666666666666</ele><time>2026-04-25T07:39:30.911Z</time></trkpt><trkpt lat="42.4903169" lon="12.3907384"><ele>84.5</ele><time>2026-04-25T07:39:32.912Z</time></trkpt><trkpt lat="42.4903744" lon="12.3906431"><ele>84.33333333333333</ele><time>2026-04-25T07:39:34.912Z</time></trkpt><trkpt lat="42.4904274" lon="12.3905618"><ele>84.16666666666667</ele><time>2026-04-25T07:39:36.911Z</time></trkpt><trkpt lat="42.4904695" lon="12.3904677"><ele>84.0</ele><time>2026-04-25T07:39:38.911Z</time></trkpt><trkpt lat="42.4905043" lon="12.3903717"><ele>83.2</ele><time>2026-04-25T07:39:40.912Z</time></trkpt><trkpt lat="42.4905536" lon="12.390204"><ele>82.4</ele><time>2026-04-25T07:39:42.911Z</time></trkpt><trkpt lat="42.490591" lon="12.3901203"><ele>81.6</ele><time>2026-04-25T07:39:43.911Z</time></trkpt><trkpt lat="42.4906481" lon="12.3899961"><ele>80.8</ele><time>2026-04-25T07:39:45.911Z</time></trkpt><trkpt lat="42.4907072" lon="12.3899063"><ele>80.0</ele><time>2026-04-25T07:39:47.911Z</time></trkpt><trkpt lat="42.4907843" lon="12.3898102"><ele>80.0</ele><time>2026-04-25T07:39:49.911Z</time></trkpt><trkpt lat="42.4908632" lon="12.3896853"><ele>80.0</ele><time>2026-04-25T07:39:51.911Z</time></trkpt><trkpt lat="42.4908991" lon="12.3895989"><ele>80.0</ele><time>2026-04-25T07:39:52.912Z</time></trkpt><trkpt lat="42.4909447" lon="12.3895013"><ele>80.0</ele><time>2026-04-25T07:39:53.911Z</time></trkpt><trkpt lat="42.4909911" lon="12.3893925"><ele>80.0</ele><time>2026-04-25T07:39:54.911Z</time></trkpt><trkpt lat="42.4910313" lon="12.3892939"><ele>80.0</ele><time>2026-04-25T07:39:55.911Z</time></trkpt><trkpt lat="42.4910683" lon="12.3891954"><ele>80.0</ele><time>2026-04-25T07:39:56.911Z</time></trkpt><trkpt lat="42.4911016" lon="12.3890989"><ele>80.0</ele><time>2026-04-25T07:39:57.911Z</time></trkpt><trkpt lat="42.49113" lon="12.3890139"><ele>80.0</ele><time>2026-04-25T07:39:58.911Z</time></trkpt><trkpt lat="42.4911609" lon="12.3889283"><ele>80.0</ele><time>2026-04-25T07:39:59.911Z</time></trkpt><trkpt lat="42.4912103" lon="12.388798"><ele>80.0</ele><time>2026-04-25T07:40:01.911Z</time></trkpt><trkpt lat="42.4912568" lon="12.3887138"><ele>79.83333333333334</ele><time>2026-04-25T07:40:03.912Z</time></trkpt><trkpt lat="42.4912922" lon="12.3886283"><ele>79.66666666666667</ele><time>2026-04-25T07:40:05.912Z</time></trkpt><trkpt lat="42.4913296" lon="12.3885166"><ele>79.5</ele><time>2026-04-25T07:40:07.911Z</time></trkpt><trkpt lat="42.4913607" lon="12.3884041"><ele>79.33333333333333</ele><time>2026-04-25T07:40:09.911Z</time></trkpt><trkpt lat="42.4914063" lon="12.3883244"><ele>79.16666666666666</ele><time>2026-04-25T07:40:11.912Z</time></trkpt><trkpt lat="42.4914602" lon="12.388267"><ele>79.0</ele><time>2026-04-25T07:40:14.911Z</time></trkpt><trkpt lat="42.4915683" lon="12.3882647"><ele>79.0</ele><time>2026-04-25T07:40:17.911Z</time></trkpt><trkpt lat="42.4916649" lon="12.3882903"><ele>79.0</ele><time>2026-04-25T07:40:19.911Z</time></trkpt><trkpt lat="42.4917413" lon="12.388324"><ele>79.0</ele><time>2026-04-25T07:40:21.911Z</time></trkpt><trkpt lat="42.49181" lon="12.3883497"><ele>79.0</ele><time>2026-04-25T07:40:23.912Z</time></trkpt><trkpt lat="42.4918852" lon="12.3883834"><ele>79.0</ele><time>2026-04-25T07:40:26.911Z</time></trkpt><trkpt lat="42.4919577" lon="12.388419"><ele>79.0</ele><time>2026-04-25T07:40:29.911Z</time></trkpt><trkpt lat="42.4918951" lon="12.3884387"><ele>79.0</ele><time>2026-04-25T07:42:19.911Z</time></trkpt></trkseg></trk></gpx>